Humphreys, Missouri
Current Conditions -  °F | °C
As of 6:55 AM on Friday 19 Dec 2014 (Local Time) from KIRK Reporting Station
Overcast Overcast  
Wind Chill: 29°   Ceiling: 900
Heat Index: 29°   Visibility: 7mi
Dew Point: 27°   Wind: 3mph
Humidity: 92%   Direction: 50°NE
Pressure: 30.27"   Gusts: NA
Location:  40.13°N, 93.32°W
Report Text: KIRK 191255Z AUTO 05003KT 7SM BKN009 OVC050 M02/M03 A3027 RMK AO2 SLP264 T10171028
Loading
Personal Weather Stations






























Interactive Weather Map New forecast layout! Learn more

10-Day Weather Forecast

Advertisements
Track Severe Weather on mobile